Time;durP1;ratioP1;P1;durP2;ratioP2;P2;SDS_P1;SDS_P2;PMS_P1;PMS_P2;Temp;Humidity;BMP_temperature;BMP_pressure;BME280_temperature;BME280_humidity;BME280_pressure;Samples;Min_cycle;Max_cycle;Signal;HPM_P1;HPM_P2
2022/04/03 00:00:17;;;;;;;8.20;6.68;;;;;;;0.63;100.00;98765.22;4877526;29;20454;-77
2022/04/03 00:02:44;;;;;;;9.07;7.57;;;;;;;0.83;100.00;98777.75;4877852;29;20239;-77
2022/04/03 00:05:11;;;;;;;8.70;6.55;;;;;;;0.81;100.00;98773.63;4878256;29;20484;-77
2022/04/03 00:07:37;;;;;;;9.93;6.47;;;;;;;0.76;100.00;98766.25;4877865;29;20268;-77
2022/04/03 00:10:05;;;;;;;7.07;5.70;;;;;;;0.83;100.00;98777.75;4877649;29;20241;-77
2022/04/03 00:12:32;;;;;;;6.40;5.80;;;;;;;0.81;100.00;98781.56;4878014;29;20299;-77
2022/04/03 00:14:58;;;;;;;8.77;5.70;;;;;;;0.82;100.00;98776.09;4875714;29;20243;-77
2022/04/03 00:17:25;;;;;;;7.80;5.70;;;;;;;0.80;100.00;98772.81;4877644;29;20231;-77
2022/04/03 00:19:52;;;;;;;8.57;6.00;;;;;;;0.76;100.00;98778.63;4877984;29;20235;-77
2022/04/03 00:22:18;;;;;;;8.53;6.30;;;;;;;0.69;100.00;98781.16;4877488;29;20323;-77
2022/04/03 00:24:45;;;;;;;9.03;6.10;;;;;;;0.67;100.00;98785.78;4875938;29;20259;-78
2022/04/03 00:27:12;;;;;;;9.03;6.33;;;;;;;0.60;100.00;98781.41;4878226;29;20251;-77
2022/04/03 00:29:39;;;;;;;7.80;5.70;;;;;;;0.63;100.00;98797.69;4878109;29;20243;-77
2022/04/03 00:32:06;;;;;;;10.50;5.97;;;;;;;0.54;100.00;98793.47;4877215;29;20646;-77
2022/04/03 00:34:33;;;;;;;6.87;5.97;;;;;;;0.54;100.00;98790.84;4878104;29;20235;-77
2022/04/03 00:37:00;;;;;;;10.37;6.80;;;;;;;0.46;100.00;98793.53;4882698;29;20243;-76
2022/04/03 00:39:28;;;;;;;9.77;6.67;;;;;;;0.35;100.00;98799.19;4878255;29;20250;-77
2022/04/03 00:41:55;;;;;;;11.07;7.20;;;;;;;0.43;100.00;98799.97;4877343;29;20235;-77
2022/04/03 00:44:23;;;;;;;12.83;7.00;;;;;;;0.32;100.00;98792.47;4877489;29;20330;-78
2022/04/03 00:46:51;;;;;;;11.60;7.33;;;;;;;0.37;100.00;98805.13;4877942;29;20239;-77
2022/04/03 00:49:17;;;;;;;10.73;7.20;;;;;;;0.42;100.00;98808.84;4871700;29;20765;-77
2022/04/03 00:51:44;;;;;;;10.90;7.47;;;;;;;0.41;100.00;98804.59;4877454;29;20318;-77
2022/04/03 00:54:12;;;;;;;12.20;7.73;;;;;;;0.53;100.00;98807.63;4877437;29;20242;-77
2022/04/03 00:56:39;;;;;;;11.83;7.63;;;;;;;0.48;100.00;98814.44;4877917;29;20649;-78
2022/04/03 00:59:06;;;;;;;13.47;8.33;;;;;;;0.41;100.00;98814.31;4877811;29;20231;-77
2022/04/03 01:01:33;;;;;;;10.30;7.90;;;;;;;0.43;100.00;98814.94;4880769;29;20291;-76
2022/04/03 01:04:00;;;;;;;11.00;8.00;;;;;;;0.47;100.00;98810.97;4881213;29;20250;-76
2022/04/03 01:06:26;;;;;;;11.20;7.67;;;;;;;0.44;100.00;98813.97;4880847;29;20251;-77
2022/04/03 01:08:53;;;;;;;9.97;8.47;;;;;;;0.53;100.00;98820.81;4880859;29;20243;-77
2022/04/03 01:11:23;;;;;;;10.97;8.20;;;;;;;0.53;100.00;98820.81;4880976;29;20334;-77
2022/04/03 01:13:51;;;;;;;12.50;8.20;;;;;;;0.42;100.00;98816.75;4881000;29;20605;-76
2022/04/03 01:16:18;;;;;;;14.67;8.90;;;;;;;0.24;100.00;98816.22;4878203;29;20739;-77
2022/04/03 01:18:46;;;;;;;10.73;8.50;;;;;;;0.37;100.00;98832.28;4879860;29;20242;-77
2022/04/03 01:21:13;;;;;;;12.03;8.57;;;;;;;0.34;100.00;98823.91;4880808;29;20268;-76
2022/04/03 01:23:40;;;;;;;11.57;9.23;;;;;;;0.29;100.00;98834.97;4878393;29;20651;-77
2022/04/03 01:26:07;;;;;;;11.07;8.87;;;;;;;0.37;100.00;98828.84;4875584;29;20291;-76
2022/04/03 01:28:34;;;;;;;13.83;8.73;;;;;;;0.38;100.00;98825.19;4880589;29;20287;-77
2022/04/03 01:31:01;;;;;;;13.70;9.17;;;;;;;0.24;100.00;98821.50;4880367;29;20291;-77
2022/04/03 01:33:28;;;;;;;13.57;8.87;;;;;;;0.33;100.00;98824.91;4880496;29;20239;-77
2022/04/03 01:35:54;;;;;;;14.93;8.57;;;;;;;0.33;100.00;98817.81;4880629;29;20235;-77
2022/04/03 01:38:21;;;;;;;11.90;8.97;;;;;;;0.35;100.00;98820.28;4880251;29;20270;-77
2022/04/03 01:40:48;;;;;;;11.07;9.03;;;;;;;0.37;100.00;98826.22;4877905;29;20255;-77
2022/04/03 01:43:14;;;;;;;12.07;8.37;;;;;;;0.47;100.00;98818.09;4880268;29;20259;-76
2022/04/03 01:45:41;;;;;;;9.53;8.30;;;;;;;0.38;100.00;98828.66;4882977;29;20734;-76
2022/04/03 01:48:10;;;;;;;13.30;8.80;;;;;;;0.39;100.00;98822.41;4873110;29;20575;-77
2022/04/03 01:50:37;;;;;;;10.20;9.07;;;;;;;0.44;100.00;98827.97;4879180;29;20258;-77
2022/04/03 01:53:04;;;;;;;10.47;8.73;;;;;;;0.50;100.00;98823.81;4880250;29;20250;-77
2022/04/03 01:55:32;;;;;;;9.23;7.93;;;;;;;0.62;100.00;98821.56;4880398;29;20279;-77
2022/04/03 01:57:59;;;;;;;10.17;9.10;;;;;;;0.61;100.00;98825.19;4880116;29;20235;-77
2022/04/03 02:00:26;;;;;;;11.50;8.80;;;;;;;0.63;100.00;98818.78;4879794;29;20270;-77
2022/04/03 02:02:53;;;;;;;9.87;8.73;;;;;;;0.75;100.00;98825.25;4877341;29;20610;-77
2022/04/03 02:05:21;;;;;;;12.33;9.23;;;;;;;0.79;100.00;98815.22;4880200;29;20255;-77
2022/04/03 02:07:48;;;;;;;9.97;8.97;;;;;;;0.74;100.00;98826.28;4879779;29;20239;-78
2022/04/03 02:10:14;;;;;;;9.90;8.93;;;;;;;0.73;100.00;98834.34;4879689;29;20251;-77
2022/04/03 02:12:43;;;;;;;11.83;8.27;;;;;;;0.97;100.00;98830.72;4879121;29;20250;-77
2022/04/03 02:15:15;;;;;;;10.83;8.87;;;;;;;0.89;100.00;98827.13;4880203;29;20258;-77
2022/04/03 02:17:42;;;;;;;9.93;8.67;;;;;;;0.85;100.00;98830.31;4879614;29;20724;-77
2022/04/03 02:20:10;;;;;;;10.60;8.90;;;;;;;0.99;100.00;98836.63;4879560;29;20240;-77
2022/04/03 02:22:37;;;;;;;9.87;8.27;;;;;;;1.02;100.00;98846.81;4879519;29;20235;-77
2022/04/03 02:25:09;;;;;;;9.90;8.90;;;;;;;0.96;100.00;98844.91;4879819;29;20300;-76
2022/04/03 02:27:38;;;;;;;10.43;8.37;;;;;;;1.01;100.00;98842.53;4879823;29;20235;-77
2022/04/03 02:30:08;;;;;;;9.57;8.43;;;;;;;0.97;100.00;98836.81;4879070;29;20358;-76
2022/04/03 02:32:39;;;;;;;10.17;7.30;;;;;;;1.02;100.00;98846.81;4879563;29;20227;-77
2022/04/03 02:35:09;;;;;;;11.30;8.10;;;;;;;1.01;100.00;98843.38;4878476;29;20235;-76
2022/04/03 02:37:36;;;;;;;9.43;7.93;;;;;;;1.06;100.00;98838.38;4879424;29;20230;-77
2022/04/03 02:40:04;;;;;;;8.60;7.80;;;;;;;1.07;100.00;98842.66;4879193;29;20254;-77
2022/04/03 02:42:32;;;;;;;7.93;7.00;;;;;;;1.08;100.00;98838.19;4879319;29;20243;-77
2022/04/03 02:44:59;;;;;;;9.30;6.57;;;;;;;1.23;100.00;98836.41;4878393;29;20585;-77
2022/04/03 02:47:26;;;;;;;7.47;5.67;;;;;;;1.26;100.00;98830.78;4879499;29;20658;-77
2022/04/03 02:49:53;;;;;;;8.77;6.07;;;;;;;1.18;100.00;98841.41;4874926;29;20236;-77
2022/04/03 02:52:20;;;;;;;7.47;5.43;;;;;;;1.21;100.00;98843.69;4883954;29;20254;-77
2022/04/03 02:54:47;;;;;;;7.40;5.43;;;;;;;1.25;100.00;98845.78;4879421;29;20334;-76
2022/04/03 02:57:15;;;;;;;7.57;5.47;;;;;;;1.31;100.00;98842.41;4876620;29;20243;-77
2022/04/03 02:59:43;;;;;;;9.43;5.63;;;;;;;1.26;100.00;98847.41;4886573;29;20317;-78
2022/04/03 03:02:10;;;;;;;8.40;5.87;;;;;;;1.38;100.00;98849.63;4875929;29;20239;-77
2022/04/03 03:04:37;;;;;;;9.20;5.57;;;;;;;1.37;100.00;98859.38;4877798;29;20656;-77
2022/04/03 03:07:06;;;;;;;7.10;5.43;;;;;;;1.26;100.00;98865.88;4879020;29;20788;-77
2022/04/03 03:09:32;;;;;;;8.13;6.17;;;;;;;1.19;100.00;98862.34;4876769;29;20238;-77
2022/04/03 03:12:00;;;;;;;9.30;6.13;;;;;;;1.21;100.00;98872.72;4881828;29;20243;-77
2022/04/03 03:14:27;;;;;;;7.83;5.87;;;;;;;1.11;100.00;98880.06;4876660;29;20244;-77
2022/04/03 03:16:55;;;;;;;7.13;5.80;;;;;;;1.13;100.00;98876.22;4879377;29;20638;-77
2022/04/03 03:19:22;;;;;;;7.80;5.30;;;;;;;1.11;100.00;98885.34;4878240;29;20270;-77
2022/04/03 03:21:49;;;;;;;6.40;5.17;;;;;;;1.07;100.00;98884.88;4879268;29;20250;-78
2022/04/03 03:24:15;;;;;;;7.27;5.17;;;;;;;1.11;100.00;98877.41;4886164;29;20266;-78
2022/04/03 03:26:42;;;;;;;7.00;4.80;;;;;;;1.24;100.00;98877.63;4879123;29;20228;-77
2022/04/03 03:29:09;;;;;;;8.40;4.77;;;;;;;1.14;100.00;98891.06;4886456;29;20250;-76
2022/04/03 03:31:36;;;;;;;7.03;5.03;;;;;;;1.03;100.00;98885.38;4892298;29;20243;-77
2022/04/03 03:34:03;;;;;;;7.30;4.97;;;;;;;1.09;100.00;98898.69;4891356;29;20234;-77
2022/04/03 03:36:30;;;;;;;8.73;4.63;;;;;;;1.08;100.00;98896.22;4891874;29;20235;-78
2022/04/03 03:38:57;;;;;;;5.97;4.90;;;;;;;1.08;100.00;98904.97;4892223;29;20232;-77
2022/04/03 03:41:23;;;;;;;6.83;4.53;;;;;;;1.09;100.00;98903.97;4887168;29;20246;-77
2022/04/03 03:43:50;;;;;;;4.80;4.30;;;;;;;1.09;100.00;98914.53;4886646;29;20251;-78
2022/04/03 03:46:17;;;;;;;5.83;4.83;;;;;;;1.15;100.00;98915.63;4896472;29;20238;-77
2022/04/03 03:48:44;;;;;;;7.63;5.10;;;;;;;0.98;100.00;98914.13;4879303;29;20700;-77
2022/04/03 03:51:11;;;;;;;5.40;4.80;;;;;;;1.04;100.00;98922.13;4878551;29;20243;-77
2022/04/03 03:53:37;;;;;;;8.83;5.07;;;;;;;0.96;100.00;98926.66;4878267;29;20723;-77
2022/04/03 03:56:05;;;;;;;7.00;5.10;;;;;;;1.02;100.00;98921.50;4879813;29;20235;-77
2022/04/03 03:58:32;;;;;;;5.97;5.33;;;;;;;1.00;100.00;98931.41;4886372;29;20239;-77
2022/04/03 04:00:59;;;;;;;6.03;5.40;;;;;;;1.00;100.00;98935.84;4870885;29;20309;-77
2022/04/03 04:03:26;;;;;;;7.93;5.10;;;;;;;1.06;100.00;98940.44;4878162;29;20314;-77
2022/04/03 04:05:52;;;;;;;7.83;5.60;;;;;;;0.99;100.00;98939.47;4878131;29;20231;-77
2022/04/03 04:08:19;;;;;;;8.97;5.50;;;;;;;1.01;100.00;98942.78;4877732;29;20239;-77
2022/04/03 04:10:46;;;;;;;7.73;5.43;;;;;;;0.95;100.00;98951.38;4880301;29;20429;-77
2022/04/03 04:13:13;;;;;;;8.83;6.13;;;;;;;0.84;100.00;98958.69;4878286;29;20244;-77
2022/04/03 04:15:40;;;;;;;6.20;5.60;;;;;;;0.88;100.00;98960.00;4878350;29;20239;-77
2022/04/03 04:18:06;;;;;;;8.13;5.87;;;;;;;0.88;100.00;98954.75;4877310;29;20239;-78
2022/04/03 04:20:33;;;;;;;6.60;5.40;;;;;;;0.79;100.00;98968.94;4878255;29;20238;-77
2022/04/03 04:23:00;;;;;;;8.10;4.93;;;;;;;0.82;100.00;98959.88;4877864;29;20318;-77
2022/04/03 04:25:26;;;;;;;5.13;4.63;;;;;;;0.93;100.00;98963.94;4878332;29;20333;-77
2022/04/03 04:27:53;;;;;;;8.93;5.47;;;;;;;0.69;100.00;98963.09;4877875;29;20227;-77
2022/04/03 04:30:20;;;;;;;7.00;4.87;;;;;;;0.81;100.00;98966.97;4877765;29;23369;-77
2022/04/03 04:32:47;;;;;;;9.20;4.57;;;;;;;0.78;100.00;98967.31;4877994;29;20704;-77
2022/04/03 04:35:14;;;;;;;7.57;4.60;;;;;;;0.93;100.00;98980.59;4879687;29;20234;-77
2022/04/03 04:37:42;;;;;;;8.40;5.20;;;;;;;0.95;100.00;98988.31;4881458;29;20231;-77
2022/04/03 04:40:10;;;;;;;5.63;4.97;;;;;;;1.00;100.00;98989.44;4880050;29;20239;-77
2022/04/03 04:42:37;;;;;;;7.03;5.07;;;;;;;0.96;100.00;98977.59;4879924;29;20303;-77
2022/04/03 04:45:06;;;;;;;8.40;4.80;;;;;;;0.92;100.00;98993.94;4881490;29;20239;-77
2022/04/03 04:47:37;;;;;;;8.40;5.60;;;;;;;0.98;100.00;98991.41;4880849;29;20239;-77
2022/04/03 04:50:08;;;;;;;8.67;5.10;;;;;;;0.90;100.00;98988.84;4881128;29;20231;-77
2022/04/03 04:52:36;;;;;;;7.30;5.83;;;;;;;0.95;100.00;98991.78;4881158;29;20591;-77
2022/04/03 04:55:05;;;;;;;7.83;5.77;;;;;;;0.99;100.00;99006.25;4881591;29;20231;-77
2022/04/03 04:57:33;;;;;;;7.00;5.20;;;;;;;0.99;100.00;99008.91;4881032;29;20291;-76
2022/04/03 05:00:00;;;;;;;8.97;6.10;;;;;;;0.99;100.00;99002.78;4881318;29;20243;-77
2022/04/03 05:02:27;;;;;;;7.13;5.03;;;;;;;1.07;100.00;99010.69;4880764;29;20242;-78
2022/04/03 05:04:54;;;;;;;8.67;5.73;;;;;;;0.96;100.00;99009.25;4881472;29;20666;-76
2022/04/03 05:07:22;;;;;;;7.50;5.60;;;;;;;1.07;100.00;99015.97;4880982;29;20258;-77
2022/04/03 05:09:50;;;;;;;8.13;5.67;;;;;;;1.10;100.00;99018.25;4881418;29;20247;-77
2022/04/03 05:12:17;;;;;;;10.43;6.10;;;;;;;1.16;100.00;99022.81;4880482;29;20241;-77
2022/04/03 05:14:44;;;;;;;6.20;5.33;;;;;;;1.18;100.00;99026.91;4885072;29;20239;-77
2022/04/03 05:17:11;;;;;;;9.93;5.33;;;;;;;1.16;100.00;99025.47;4880859;29;20719;-77
2022/04/03 05:19:38;;;;;;;6.43;5.83;;;;;;;1.16;100.00;99036.03;4879729;29;20969;-77
2022/04/03 05:22:05;;;;;;;7.00;6.03;;;;;;;1.09;100.00;99021.88;4875363;29;20235;-77
2022/04/03 05:24:32;;;;;;;11.00;6.67;;;;;;;1.20;100.00;99024.13;4880716;29;20318;-77
2022/04/03 05:26:59;;;;;;;9.00;5.87;;;;;;;1.16;100.00;99043.94;4880615;29;20235;-77
2022/04/03 05:29:25;;;;;;;6.77;5.77;;;;;;;1.27;100.00;99040.88;4880709;29;20235;-77
2022/04/03 05:31:52;;;;;;;6.87;5.07;;;;;;;1.34;100.00;99055.03;4880464;29;20714;-76
2022/04/03 05:34:19;;;;;;;10.07;6.10;;;;;;;1.27;100.00;99054.06;4880505;29;20601;-78
2022/04/03 05:36:46;;;;;;;9.10;6.13;;;;;;;1.24;100.00;99057.91;4880383;29;20239;-77
2022/04/03 05:39:12;;;;;;;6.87;5.63;;;;;;;1.26;100.00;99057.75;4878716;29;20267;-78
2022/04/03 05:41:40;;;;;;;7.40;6.00;;;;;;;1.15;100.00;99064.22;4877648;29;20291;-77
2022/04/03 05:44:06;;;;;;;7.13;5.73;;;;;;;1.12;100.00;99063.75;4879750;29;20243;-77
2022/04/03 05:46:34;;;;;;;9.03;5.00;;;;;;;1.18;100.00;99057.75;4879595;29;20235;-77
2022/04/03 05:49:01;;;;;;;7.00;4.93;;;;;;;1.16;100.00;99070.31;4885222;29;20239;-77
2022/04/03 05:51:29;;;;;;;8.37;5.10;;;;;;;1.09;100.00;99064.91;4884973;29;20231;-77
2022/04/03 05:53:56;;;;;;;6.40;4.50;;;;;;;1.13;100.00;99076.75;4880156;29;20284;-77
2022/04/03 05:56:27;;;;;;;5.20;4.70;;;;;;;1.16;100.00;99063.22;4875077;29;20608;-76
2022/04/03 05:58:54;;;;;;;6.10;4.67;;;;;;;1.09;100.00;99072.00;4880215;29;20227;-78
2022/04/03 06:01:21;;;;;;;7.40;5.03;;;;;;;1.16;100.00;99088.78;4880052;29;20235;-77
2022/04/03 06:03:48;;;;;;;8.97;4.97;;;;;;;1.03;100.00;99086.69;4880143;29;20251;-78
2022/04/03 06:06:15;;;;;;;6.10;4.60;;;;;;;1.01;100.00;99095.78;4879733;29;20243;-77
2022/04/03 06:08:41;;;;;;;8.27;5.00;;;;;;;0.98;100.00;99094.28;4879870;29;20243;-77
2022/04/03 06:11:09;;;;;;;7.53;4.50;;;;;;;1.06;100.00;99106.66;4879947;29;20239;-78
2022/04/03 06:13:36;;;;;;;7.27;4.50;;;;;;;1.13;100.00;99097.84;4879990;29;20239;-77
2022/04/03 06:16:03;;;;;;;5.63;4.73;;;;;;;1.15;100.00;99108.25;4879543;29;20243;-77
2022/04/03 06:18:29;;;;;;;6.63;4.20;;;;;;;1.22;100.00;99103.91;4879695;29;20259;-77
2022/04/03 06:20:56;;;;;;;7.43;4.40;;;;;;;1.15;100.00;99098.53;4885082;29;20239;-77
2022/04/03 06:23:23;;;;;;;7.77;4.67;;;;;;;1.34;100.00;99105.19;4879728;29;20334;-77
2022/04/03 06:25:54;;;;;;;6.70;4.23;;;;;;;1.38;100.00;99110.94;4880041;29;20711;-77
2022/04/03 06:28:21;;;;;;;7.27;3.80;;;;;;;1.53;100.00;99117.94;4879495;29;20622;-77
2022/04/03 06:30:48;;;;;;;9.20;4.00;;;;;;;1.62;100.00;99108.97;4881982;29;20251;-77
2022/04/03 06:33:17;;;;;;;5.13;3.80;;;;;;;1.67;100.00;99122.47;4879467;29;20235;-77
2022/04/03 06:35:44;;;;;;;6.60;4.60;;;;;;;1.57;100.00;99128.97;4879786;29;20692;-77
2022/04/03 06:38:13;;;;;;;6.47;3.63;;;;;;;1.74;100.00;99133.97;4881390;29;20235;-77
2022/04/03 06:40:53;;;;;;;8.07;4.17;;;;;;;1.73;100.00;99142.06;4879510;29;20262;-76
2022/04/03 06:43:21;;;;;;;8.07;4.20;;;;;;;1.83;100.00;99147.94;4879149;29;20251;-78
2022/04/03 06:45:48;;;;;;;6.47;3.87;;;;;;;1.96;100.00;99153.47;4878539;29;20235;-78
2022/04/03 06:48:15;;;;;;;7.20;4.23;;;;;;;2.09;100.00;99159.00;4877422;29;20711;-79
2022/04/03 06:50:43;;;;;;;7.20;3.60;;;;;;;1.94;100.00;99160.75;4875832;29;20235;-78
2022/04/03 06:53:10;;;;;;;5.23;3.67;;;;;;;2.02;100.00;99157.22;4880406;29;20246;-78
2022/04/03 06:55:37;;;;;;;7.00;3.50;;;;;;;2.02;100.00;99179.19;4879392;29;20235;-78
2022/04/03 06:58:04;;;;;;;6.03;4.00;;;;;;;2.09;100.00;99160.81;4878521;29;20231;-78
2022/04/03 07:00:31;;;;;;;5.73;3.70;;;;;;;2.18;100.00;99157.94;4879300;29;20227;-78
2022/04/03 07:02:57;;;;;;;5.87;3.97;;;;;;;2.25;100.00;99176.53;4879195;29;20250;-78
2022/04/03 07:05:25;;;;;;;5.90;3.67;;;;;;;2.25;100.00;99168.59;4879294;29;20235;-78
2022/04/03 07:07:52;;;;;;;7.30;3.97;;;;;;;2.29;100.00;99177.81;4881506;29;20243;-78
2022/04/03 07:10:20;;;;;;;7.87;4.10;;;;;;;2.29;100.00;99185.75;4877310;29;20318;-78
2022/04/03 07:12:46;;;;;;;5.30;4.10;;;;;;;2.52;100.00;99183.91;4878902;29;20309;-78
2022/04/03 07:15:13;;;;;;;5.37;4.00;;;;;;;2.69;100.00;99204.94;4877742;29;20596;-78
2022/04/03 07:17:41;;;;;;;6.97;4.23;;;;;;;2.73;100.00;99214.16;4878734;29;20231;-78
2022/04/03 07:20:09;;;;;;;9.03;4.10;;;;;;;2.72;100.00;99205.38;4876066;29;20240;-79
2022/04/03 07:22:36;;;;;;;6.30;3.73;;;;;;;2.67;100.00;99218.31;4877963;29;20231;-78
2022/04/03 07:25:03;;;;;;;6.67;3.93;;;;;;;2.71;100.00;99214.31;4878815;29;20238;-78
2022/04/03 07:27:30;;;;;;;7.00;3.80;;;;;;;2.76;100.00;99219.06;4878842;29;20250;-78
2022/04/03 07:29:57;;;;;;;5.17;3.40;;;;;;;2.75;100.00;99222.75;4878854;29;20231;-78
2022/04/03 07:32:24;;;;;;;5.00;3.63;;;;;;;2.76;100.00;99224.34;4878074;29;20250;-78
2022/04/03 07:34:50;;;;;;;6.53;3.70;;;;;;;2.61;100.00;99232.28;4878632;29;20259;-77
2022/04/03 07:37:17;;;;;;;5.67;3.43;;;;;;;2.83;100.00;99231.41;4878650;29;20266;-77
2022/04/03 07:39:44;;;;;;;6.50;4.07;;;;;;;2.96;100.00;99241.38;4878312;29;20231;-78
2022/04/03 07:42:11;;;;;;;5.63;3.50;;;;;;;3.02;100.00;99244.13;4875875;29;20235;-78
2022/04/03 07:44:37;;;;;;;10.50;3.63;;;;;;;3.07;100.00;99244.41;4878630;29;20235;-77
2022/04/03 07:47:04;;;;;;;6.63;3.57;;;;;;;3.20;100.00;99251.72;4883343;29;20262;-77
2022/04/03 07:49:31;;;;;;;4.47;3.40;;;;;;;3.37;100.00;99258.47;4875273;29;20731;-77
2022/04/03 07:51:58;;;;;;;6.73;4.10;;;;;;;3.42;99.57;99255.28;4875639;29;20242;-77
2022/04/03 07:54:25;;;;;;;5.03;3.60;;;;;;;3.35;98.24;99249.91;4877914;29;20267;-78
2022/04/03 07:56:52;;;;;;;5.53;3.70;;;;;;;3.54;100.00;99275.84;4877086;29;20451;-78
2022/04/03 07:59:20;;;;;;;5.07;3.77;;;;;;;3.59;100.00;99271.81;4878133;29;20243;-78
2022/04/03 08:01:46;;;;;;;5.40;3.60;;;;;;;3.51;100.00;99278.03;4878395;29;20758;-77
2022/04/03 08:04:13;;;;;;;6.43;4.03;;;;;;;3.91;98.26;99276.72;4877443;29;20262;-78
2022/04/03 08:06:40;;;;;;;5.50;3.50;;;;;;;4.31;100.00;99280.63;4878391;29;20771;-78
2022/04/03 08:09:07;;;;;;;6.40;4.13;;;;;;;4.08;89.86;99282.63;4878447;29;20766;-77
2022/04/03 08:11:34;;;;;;;6.43;4.07;;;;;;;4.22;93.24;99289.72;4881866;29;20309;-77
2022/04/03 08:14:01;;;;;;;6.17;3.77;;;;;;;4.22;91.93;99295.84;4883780;29;20747;-76
2022/04/03 08:16:28;;;;;;;7.77;4.07;;;;;;;4.37;92.32;99293.97;4884377;29;20242;-77
2022/04/03 08:18:57;;;;;;;5.53;4.23;;;;;;;4.54;93.75;99299.84;4884390;29;20242;-78
2022/04/03 08:21:23;;;;;;;7.93;4.13;;;;;;;4.37;90.77;99306.41;4885652;29;20748;-78
2022/04/03 08:23:50;;;;;;;6.83;3.80;;;;;;;4.19;88.05;99290.94;4889408;29;20243;-78
2022/04/03 08:26:19;;;;;;;8.17;4.00;;;;;;;4.24;92.52;99312.41;4883657;29;20243;-78
2022/04/03 08:28:46;;;;;;;6.40;3.80;;;;;;;4.14;88.07;99314.53;4884282;29;20242;-78
2022/04/03 08:31:12;;;;;;;5.27;3.77;;;;;;;4.47;91.54;99314.06;4881659;29;20290;-77
2022/04/03 08:33:39;;;;;;;5.87;3.63;;;;;;;4.34;80.96;99320.03;4884064;29;20326;-78
2022/04/03 08:36:06;;;;;;;7.77;3.90;;;;;;;4.34;79.89;99335.94;4883705;29;20239;-78
2022/04/03 08:38:33;;;;;;;5.07;3.83;;;;;;;4.33;85.01;99345.75;4878919;29;20239;-78
2022/04/03 08:41:01;;;;;;;4.70;3.87;;;;;;;4.10;83.19;99338.94;4886994;29;20259;-78
2022/04/03 08:43:31;;;;;;;6.50;4.23;;;;;;;4.33;89.32;99337.81;4883922;29;20677;-78
2022/04/03 08:45:58;;;;;;;5.57;4.10;;;;;;;4.40;80.74;99349.31;4883190;29;20246;-78
2022/04/03 08:48:27;;;;;;;6.97;4.10;;;;;;;4.33;85.75;99347.59;4883306;29;20223;-78
2022/04/03 08:50:54;;;;;;;5.70;3.73;;;;;;;4.19;83.56;99357.22;4882919;29;20242;-78
2022/04/03 08:53:23;;;;;;;4.57;3.53;;;;;;;3.74;87.46;99352.09;4882672;29;20235;-78
2022/04/03 08:55:50;;;;;;;5.53;4.30;;;;;;;3.90;88.73;99362.53;4884145;29;20299;-78
2022/04/03 08:58:17;;;;;;;6.93;4.27;;;;;;;4.04;88.85;99369.66;4883357;29;20227;-79
2022/04/03 09:00:44;;;;;;;5.33;4.00;;;;;;;3.81;88.30;99359.16;4884050;29;20231;-78
2022/04/03 09:03:13;;;;;;;6.73;4.57;;;;;;;4.08;92.41;99364.81;4883410;29;20231;-78
2022/04/03 09:05:41;;;;;;;4.70;3.90;;;;;;;4.08;89.55;99348.91;4888025;29;20223;-78
2022/04/03 09:08:09;;;;;;;6.23;4.60;;;;;;;4.09;88.78;99343.41;4883322;29;20321;-79
2022/04/03 09:10:36;;;;;;;5.97;4.40;;;;;;;4.16;81.90;99362.03;4881835;29;20262;-78
2022/04/03 09:13:03;;;;;;;6.60;4.33;;;;;;;4.01;85.76;99356.78;4881409;29;20231;-78
2022/04/03 09:15:31;;;;;;;5.20;4.60;;;;;;;4.05;84.72;99358.06;4883496;29;20322;-77
2022/04/03 09:18:02;;;;;;;6.00;4.67;;;;;;;4.16;89.69;99354.91;4884833;29;20231;-78
2022/04/03 09:20:32;;;;;;;7.27;4.77;;;;;;;4.18;84.83;99360.03;4882617;29;20699;-78
2022/04/03 09:23:02;;;;;;;9.10;4.80;;;;;;;4.27;89.77;99364.25;4881899;29;20235;-78
2022/04/03 09:25:40;;;;;;;8.00;4.97;;;;;;;4.39;80.79;99370.69;4880730;29;20651;-78
2022/04/03 09:28:11;;;;;;;5.93;4.50;;;;;;;4.48;79.75;99351.00;4873475;29;20333;-78
2022/04/03 09:30:45;;;;;;;7.27;4.63;;;;;;;4.47;79.58;99359.19;4877323;29;20609;-77
2022/04/03 09:33:15;;;;;;;7.00;4.60;;;;;;;4.46;79.54;99371.63;4880813;29;20242;-78
2022/04/03 09:35:59;;;;;;;7.10;4.60;;;;;;;4.47;80.58;99367.13;4880818;29;20295;-78
2022/04/03 09:38:29;;;;;;;6.87;4.80;;;;;;;4.87;82.97;99366.53;4879443;29;20615;-77
2022/04/03 09:40:58;;;;;;;7.33;4.83;;;;;;;5.28;78.16;99364.03;4875841;29;20251;-78
2022/04/03 09:43:35;;;;;;;6.80;5.17;;;;;;;5.12;79.81;99370.47;4879521;29;20258;-78
2022/04/03 09:46:07;;;;;;;5.93;4.37;;;;;;;5.18;78.17;99367.03;4879114;29;20259;-78
2022/04/03 09:48:39;;;;;;;5.30;4.80;;;;;;;5.04;77.44;99372.44;4875385;29;20287;-78
2022/04/03 09:51:13;;;;;;;7.33;5.17;;;;;;;5.27;80.12;99381.00;4882626;29;20695;-79
2022/04/03 09:53:52;;;;;;;6.10;4.80;;;;;;;5.36;73.84;99384.34;4876098;29;20253;-79
2022/04/03 09:56:22;;;;;;;6.93;4.80;;;;;;;5.88;70.61;99386.59;4877152;29;20330;-76
2022/04/03 09:58:51;;;;;;;8.03;5.00;;;;;;;6.23;66.80;99390.06;4880150;29;20239;-77
2022/04/03 10:01:29;;;;;;;7.03;4.90;;;;;;;6.36;69.35;99382.94;4881103;29;20239;-77
2022/04/03 10:04:00;;;;;;;6.10;4.90;;;;;;;6.39;64.39;99397.72;4880083;29;20595;-76
2022/04/03 10:06:27;;;;;;;6.00;5.20;;;;;;;6.20;61.86;99392.06;4880077;29;20227;-76
2022/04/03 10:08:54;;;;;;;8.27;4.80;;;;;;;6.06;65.41;99390.41;4874305;29;20672;-76
2022/04/03 10:11:21;;;;;;;6.47;4.53;;;;;;;6.03;61.08;99389.94;4884005;29;20755;-75
2022/04/03 10:13:48;;;;;;;7.53;5.33;;;;;;;6.05;63.12;99393.25;4879804;29;20249;-77
2022/04/03 10:16:16;;;;;;;8.87;5.03;;;;;;;5.68;62.95;99381.13;4898810;29;20287;-76
2022/04/03 10:18:44;;;;;;;5.73;4.97;;;;;;;5.25;64.31;99378.53;4884086;29;20236;-77
2022/04/03 10:21:32;;;;;;;7.87;4.87;;;;;;;5.01;68.95;99388.72;4875877;29;20239;-77
2022/04/03 10:24:05;;;;;;;8.33;5.83;;;;;;;4.73;71.76;99391.28;4884114;29;20290;-76
2022/04/03 10:26:36;;;;;;;6.63;5.47;;;;;;;4.43;71.55;99396.66;4878821;29;20238;-78
2022/04/03 10:29:07;;;;;;;6.97;5.40;;;;;;;3.93;75.58;99401.91;4879929;29;20240;-77
2022/04/03 10:31:34;;;;;;;7.17;6.10;;;;;;;3.97;80.09;99406.66;4883879;29;20246;-77
2022/04/03 10:34:00;;;;;;;10.27;6.83;;;;;;;4.14;79.40;99401.19;4879946;29;20647;-77
2022/04/03 10:36:30;;;;;;;7.50;6.20;;;;;;;4.37;78.77;99405.38;4879468;29;20785;-77
2022/04/03 10:39:04;;;;;;;7.33;5.80;;;;;;;4.40;76.23;99407.66;4878423;29;20321;-77
2022/04/03 10:41:35;;;;;;;7.23;6.23;;;;;;;4.49;73.37;99412.84;4882134;29;20235;-77
2022/04/03 10:44:19;;;;;;;7.67;6.50;;;;;;;4.30;74.53;99414.25;4876149;29;20251;-77
2022/04/03 10:47:01;;;;;;;7.37;6.03;;;;;;;4.29;72.25;99402.81;4876767;29;20235;-77
2022/04/03 10:49:37;;;;;;;7.13;6.43;;;;;;;4.27;73.83;99406.66;4875089;29;20243;-76
2022/04/03 10:52:09;;;;;;;6.17;5.60;;;;;;;4.49;73.23;99408.38;4881600;29;20688;-77
2022/04/03 10:54:47;;;;;;;6.23;5.63;;;;;;;4.34;71.17;99408.38;4880617;29;20337;-76
2022/04/03 10:57:42;;;;;;;8.87;6.50;;;;;;;4.46;71.47;99423.84;4878445;29;20239;-76
2022/04/03 11:00:09;;;;;;;8.00;5.73;;;;;;;4.57;68.84;99418.91;4877121;29;20679;-77
2022/04/03 11:02:36;;;;;;;6.80;5.73;;;;;;;4.97;65.35;99419.31;4879206;29;20236;-77
2022/04/03 11:05:21;;;;;;;7.27;6.13;;;;;;;4.93;65.22;99410.91;4875866;29;20706;-77
2022/04/03 11:07:54;;;;;;;7.10;5.93;;;;;;;5.04;65.07;99421.03;4876781;29;20283;-76
2022/04/03 11:10:53;;;;;;;7.27;5.80;;;;;;;5.28;61.69;99418.00;4877136;29;20242;-76
2022/04/03 11:13:37;;;;;;;8.43;5.53;;;;;;;5.33;59.64;99420.06;4879330;29;20682;-76
2022/04/03 11:16:06;;;;;;;7.77;6.07;;;;;;;5.38;61.51;99415.00;4877442;29;20315;-77
2022/04/03 11:18:38;;;;;;;7.00;6.03;;;;;;;5.50;60.72;99423.31;4877751;29;20256;-77
2022/04/03 11:21:18;;;;;;;6.50;5.90;;;;;;;5.32;62.79;99424.56;4883027;29;20777;-76
2022/04/03 11:23:55;;;;;;;6.60;6.00;;;;;;;5.14;62.37;99424.19;4874231;29;20235;-76
2022/04/03 11:26:22;;;;;;;7.17;6.37;;;;;;;5.05;64.21;99435.94;4878163;29;20235;-76
2022/04/03 11:28:58;;;;;;;6.60;5.93;;;;;;;5.05;62.36;99425.31;4878004;29;20257;-77
2022/04/03 11:31:25;;;;;;;6.97;6.27;;;;;;;5.07;64.17;99431.28;4878213;29;20302;-77
2022/04/03 11:33:53;;;;;;;9.43;6.43;;;;;;;4.93;67.20;99434.81;4881224;29;20291;-77
2022/04/03 11:36:24;;;;;;;6.77;6.17;;;;;;;4.89;66.08;99428.22;4878296;29;20238;-76
2022/04/03 11:38:51;;;;;;;6.87;6.17;;;;;;;5.05;68.81;99427.16;4877441;29;20607;-75